createdAt,value
2024-01-17T00:01:29.150Z,-4.52
2024-01-17T00:06:33.067Z,-4.66
2024-01-17T00:11:36.273Z,-4.68
2024-01-17T00:16:40.777Z,-4.54
2024-01-17T00:21:43.918Z,-4.72
2024-01-17T00:26:47.137Z,-4.62
2024-01-17T00:31:51.626Z,-4.81
2024-01-17T00:36:55.003Z,-4.89
2024-01-17T00:41:58.160Z,-4.80
2024-01-17T00:47:02.657Z,-4.90
2024-01-17T00:52:06.443Z,-4.84
2024-01-17T00:57:09.675Z,-4.76
2024-01-17T01:02:14.254Z,-4.64
2024-01-17T01:07:17.397Z,-4.66
2024-01-17T01:12:20.541Z,-4.66
2024-01-17T01:17:25.085Z,-4.67
2024-01-17T01:22:28.267Z,-4.60
2024-01-17T01:27:31.393Z,-4.36
2024-01-17T01:32:35.958Z,-4.53
2024-01-17T01:37:39.136Z,-4.50
2024-01-17T01:42:45.256Z,-4.53
2024-01-17T01:47:49.916Z,-4.58
2024-01-17T01:52:53.573Z,-4.50
2024-01-17T01:57:56.829Z,-4.40
2024-01-17T02:03:01.459Z,-4.25
2024-01-17T02:08:05.244Z,-4.11
2024-01-17T02:13:09.612Z,-4.33
2024-01-17T02:18:14.334Z,-4.38
2024-01-17T02:23:25.317Z,-4.14
2024-01-17T02:28:31.100Z,-4.21
2024-01-17T02:33:34.815Z,-4.20
2024-01-17T02:38:38.164Z,-4.02
2024-01-17T02:43:42.822Z,-3.94
2024-01-17T02:48:46.061Z,-3.86
2024-01-17T02:53:49.307Z,-3.76
2024-01-17T02:58:53.793Z,-3.63
2024-01-17T03:03:57.003Z,-3.43
2024-01-17T03:09:00.285Z,-3.27
2024-01-17T03:14:04.940Z,-3.24
2024-01-17T03:19:08.835Z,-3.19
2024-01-17T03:24:12.270Z,-3.18
2024-01-17T03:29:16.789Z,-3.04
2024-01-17T03:34:19.974Z,-3.08
2024-01-17T03:39:23.481Z,-2.97
2024-01-17T03:44:28.065Z,-2.94
2024-01-17T03:49:31.252Z,-2.88
2024-01-17T03:54:34.375Z,-2.93
2024-01-17T03:59:38.883Z,-2.90
2024-01-17T04:04:42.946Z,-2.88
2024-01-17T04:09:46.497Z,-2.90
2024-01-17T04:14:51.054Z,-2.89
2024-01-17T04:19:54.343Z,-2.78
2024-01-17T04:24:57.470Z,-2.90
2024-01-17T04:30:02.050Z,-2.72
2024-01-17T04:35:06.067Z,-2.51
2024-01-17T04:40:11.293Z,-2.49
2024-01-17T04:45:15.827Z,-2.16
2024-01-17T04:50:19.231Z,-2.46
2024-01-17T04:55:22.395Z,-2.27
2024-01-17T05:00:27.155Z,-2.39
2024-01-17T05:05:30.333Z,-2.46
2024-01-17T05:10:33.515Z,-2.35
2024-01-17T05:15:38.482Z,-2.41
2024-01-17T05:20:42.316Z,-2.17
2024-01-17T05:25:45.490Z,-2.20
2024-01-17T05:30:50.506Z,-2.21
2024-01-17T05:35:53.677Z,-2.12
2024-01-17T05:40:58.006Z,-2.23
2024-01-17T05:46:03.299Z,-2.27
2024-01-17T05:51:07.423Z,-2.15
2024-01-17T05:56:10.630Z,-2.02
2024-01-17T06:01:15.586Z,-2.00
2024-01-17T06:06:19.110Z,-1.72
2024-01-17T06:11:22.332Z,-1.60
2024-01-17T06:16:26.817Z,-1.53
2024-01-17T06:21:31.018Z,-1.57
2024-01-17T06:26:34.386Z,-1.38
2024-01-17T06:31:39.360Z,-1.28
2024-01-17T06:36:43.898Z,-1.10
2024-01-17T06:41:47.606Z,-1.11
2024-01-17T06:46:52.148Z,-1.08
2024-01-17T06:51:55.289Z,-1.04
2024-01-17T06:56:58.491Z,-0.85
2024-01-17T07:02:03.009Z,-0.78
2024-01-17T07:07:06.213Z,-0.71
2024-01-17T07:12:09.601Z,-0.57
2024-01-17T07:17:14.057Z,-0.52
2024-01-17T07:22:17.306Z,-0.44
2024-01-17T07:27:20.479Z,-0.35
2024-01-17T07:32:25.025Z,-0.32
2024-01-17T07:37:28.191Z,-0.26
2024-01-17T07:42:31.261Z,-0.13
2024-01-17T07:47:35.849Z,0.08
2024-01-17T07:52:39.258Z,0.07
2024-01-17T07:57:42.370Z,0.11
2024-01-17T08:02:46.923Z,0.24
2024-01-17T08:07:50.048Z,0.22
2024-01-17T08:12:53.194Z,0.27
2024-01-17T08:17:57.691Z,0.39
2024-01-17T08:23:00.827Z,0.35
2024-01-17T08:28:04.634Z,0.42
2024-01-17T08:33:09.272Z,0.53
2024-01-17T08:38:12.673Z,0.45
2024-01-17T08:43:15.780Z,0.52
2024-01-17T08:48:20.555Z,0.61
2024-01-17T08:53:23.729Z,0.53
2024-01-17T08:58:27.063Z,0.66
2024-01-17T09:03:33.500Z,0.86
2024-01-17T09:08:36.755Z,0.72
2024-01-17T09:13:39.890Z,0.68
2024-01-17T09:18:44.436Z,0.73
2024-01-17T09:23:47.615Z,0.76
2024-01-17T09:28:50.799Z,0.87
2024-01-17T09:33:55.414Z,0.82
2024-01-17T09:38:58.692Z,0.89
2024-01-17T09:44:04.250Z,0.90
2024-01-17T09:49:09.383Z,0.94
2024-01-17T09:54:16.370Z,0.99
2024-01-17T09:59:29.014Z,1.11
2024-01-17T10:04:35.763Z,1.17
2024-01-17T10:09:39.812Z,1.28
2024-01-17T10:14:43.103Z,1.33
2024-01-17T10:19:48.894Z,1.38
2024-01-17T10:24:54.417Z,1.60
2024-01-17T10:29:57.965Z,1.48
2024-01-17T10:35:06.828Z,1.46
2024-01-17T10:40:12.918Z,1.54
2024-01-17T10:45:24.828Z,1.66
2024-01-17T10:50:31.714Z,1.63
2024-01-17T10:55:39.840Z,2.00
2024-01-17T11:00:46.608Z,2.55
2024-01-17T11:05:52.618Z,2.88
2024-01-17T11:10:56.904Z,3.04
2024-01-17T11:16:02.918Z,3.13
2024-01-17T11:21:07.738Z,3.25
2024-01-17T11:26:20.017Z,3.43
2024-01-17T11:31:39.433Z,3.56
2024-01-17T11:36:47.058Z,3.61
2024-01-17T11:41:52.349Z,3.71
2024-01-17T11:46:56.049Z,3.72
2024-01-17T11:52:00.777Z,3.48
2024-01-17T11:57:08.078Z,3.42
2024-01-17T12:02:38.163Z,3.21
2024-01-17T12:07:45.078Z,3.22
2024-01-17T12:12:48.429Z,3.42
2024-01-17T12:17:51.802Z,3.48
2024-01-17T12:22:56.663Z,3.45
2024-01-17T12:27:59.945Z,3.65
2024-01-17T12:33:04.142Z,3.87
2024-01-17T12:38:09.310Z,3.63
2024-01-17T12:43:13.155Z,3.75
2024-01-17T12:48:17.088Z,3.61
2024-01-17T12:53:21.658Z,3.46
2024-01-17T12:58:25.090Z,3.36
2024-01-17T13:03:28.252Z,3.28
2024-01-17T13:08:32.785Z,3.29
2024-01-17T13:13:36.061Z,3.24
2024-01-17T13:18:39.222Z,3.26
2024-01-17T13:23:43.747Z,3.39
2024-01-17T13:28:46.880Z,3.31
2024-01-17T13:33:51.150Z,3.37
2024-01-17T13:38:55.847Z,3.56
2024-01-17T13:43:58.991Z,3.51
2024-01-17T13:49:02.206Z,3.56
2024-01-17T13:54:16.306Z,3.59
2024-01-17T13:59:19.892Z,3.65
2024-01-17T14:04:23.519Z,3.75
2024-01-17T14:09:31.552Z,3.88
2024-01-17T14:14:34.801Z,3.85
2024-01-17T14:19:38.135Z,3.79
2024-01-17T14:24:42.822Z,3.83
2024-01-17T14:29:45.956Z,4.01
2024-01-17T14:34:49.168Z,4.02
2024-01-17T14:39:53.752Z,4.02
2024-01-17T14:44:57.333Z,4.14
2024-01-17T14:50:00.687Z,4.17
2024-01-17T14:55:08.152Z,4.15
2024-01-17T15:00:20.376Z,4.24
2024-01-17T15:05:25.904Z,4.12
2024-01-17T15:10:30.492Z,4.12
2024-01-17T15:15:33.635Z,3.93
2024-01-17T15:20:36.812Z,4.18
2024-01-17T15:25:41.912Z,3.91
2024-01-17T15:30:46.250Z,3.91
2024-01-17T15:35:49.642Z,3.69
2024-01-17T15:41:00.029Z,3.71
2024-01-17T15:46:03.120Z,3.66
2024-01-17T15:51:07.527Z,3.67
2024-01-17T15:56:13.498Z,3.77
2024-01-17T16:01:16.665Z,3.67
2024-01-17T16:06:20.173Z,3.55
2024-01-17T16:11:24.777Z,3.58
2024-01-17T16:16:27.889Z,3.69
2024-01-17T16:21:32.067Z,3.71
2024-01-17T16:26:36.577Z,3.75
2024-01-17T16:31:46.247Z,4.36
2024-01-17T16:36:49.384Z,4.07
2024-01-17T16:41:53.813Z,3.70
2024-01-17T16:46:56.983Z,3.66
2024-01-17T16:52:00.069Z,3.67
2024-01-17T16:57:05.051Z,3.84
2024-01-17T17:02:08.166Z,4.20
2024-01-17T17:07:11.298Z,4.05
2024-01-17T17:12:15.867Z,4.27
2024-01-17T17:17:19.054Z,3.80
2024-01-17T17:22:30.067Z,3.84
2024-01-17T17:27:38.504Z,4.38
2024-01-17T17:32:41.832Z,4.86
2024-01-17T17:37:45.032Z,5.15
2024-01-17T17:42:49.542Z,5.42
2024-01-17T17:47:52.792Z,5.65
2024-01-17T17:52:56.284Z,5.78
2024-01-17T17:58:00.741Z,6.03
2024-01-17T18:03:06.052Z,6.42
2024-01-17T18:08:11.500Z,6.08
2024-01-17T18:13:16.032Z,5.84
2024-01-17T18:18:19.374Z,5.82
2024-01-17T18:23:22.773Z,5.97
2024-01-17T18:28:27.408Z,5.97
2024-01-17T18:33:30.593Z,5.70
2024-01-17T18:38:34.494Z,5.40
2024-01-17T18:43:40.793Z,5.28
2024-01-17T18:48:44.814Z,5.13
2024-01-17T18:53:49.447Z,5.06
2024-01-17T18:58:55.369Z,5.14
2024-01-17T19:04:00.457Z,5.42
2024-01-17T19:09:06.672Z,5.66
2024-01-17T19:14:11.893Z,5.86
2024-01-17T19:19:15.244Z,6.15
2024-01-17T19:24:19.268Z,6.25
2024-01-17T19:29:23.715Z,6.28
2024-01-17T19:34:27.277Z,6.44
2024-01-17T19:39:30.438Z,6.60
2024-01-17T19:44:35.663Z,6.08
2024-01-17T19:49:39.423Z,5.71
2024-01-17T19:54:44.513Z,5.54
2024-01-17T19:59:49.199Z,5.35
2024-01-17T20:04:53.299Z,5.34
2024-01-17T20:09:57.496Z,5.17
2024-01-17T20:15:02.341Z,5.00
2024-01-17T20:20:07.284Z,5.06
2024-01-17T20:25:14.523Z,5.21
2024-01-17T20:30:21.664Z,5.22
2024-01-17T20:35:25.163Z,5.29
2024-01-17T20:40:30.111Z,5.14
2024-01-17T20:45:34.671Z,5.28
2024-01-17T20:50:37.795Z,5.24
2024-01-17T20:55:41.314Z,5.22
2024-01-17T21:00:45.883Z,5.46
2024-01-17T21:05:49.169Z,5.90
2024-01-17T21:10:52.325Z,6.20
2024-01-17T21:15:57.282Z,6.49
2024-01-17T21:21:00.727Z,6.68
2024-01-17T21:26:04.821Z,6.79
2024-01-17T21:31:09.275Z,6.87
2024-01-17T21:36:22.949Z,6.74
2024-01-17T21:41:27.211Z,6.59
2024-01-17T21:46:31.871Z,6.50
2024-01-17T21:51:37.652Z,6.52
2024-01-17T21:56:40.867Z,6.72
2024-01-17T22:01:45.351Z,6.88
2024-01-17T22:06:48.518Z,7.05
2024-01-17T22:11:51.704Z,6.98
2024-01-17T22:16:56.479Z,7.09
2024-01-17T22:21:59.567Z,7.07
2024-01-17T22:27:02.858Z,7.25
2024-01-17T22:32:07.887Z,7.22
2024-01-17T22:37:11.131Z,6.94
2024-01-17T22:42:14.646Z,6.98
2024-01-17T22:47:19.096Z,7.16
2024-01-17T22:52:22.186Z,7.08
2024-01-17T22:57:25.660Z,7.03
2024-01-17T23:02:30.597Z,6.90
2024-01-17T23:07:33.732Z,6.94
2024-01-17T23:12:36.898Z,7.43
2024-01-17T23:17:41.542Z,7.51
2024-01-17T23:22:44.698Z,7.59
2024-01-17T23:27:47.758Z,7.54
2024-01-17T23:32:52.429Z,7.59
2024-01-17T23:37:55.648Z,7.76
2024-01-17T23:42:58.727Z,7.64
2024-01-17T23:48:03.338Z,7.57
2024-01-17T23:53:06.492Z,7.42
2024-01-17T23:58:09.770Z,7.32
